首页
METAR-TAF:

METAR-TAF

机场 :

蘇克雷元帥國際機場

基多, 厄瓜多尔

纬度: 0-06-48S, 经度: 78-21-31W, 海拔: 2400米

当前天气观测

该预报发布于23分钟前的13:00 UTC
静风
温度 17°C
湿度 48%
气压 1027 hPa
能见度10公里或以上
少量云层高于4000英尺

METAR: SEQM 161300Z 00000KT 9999 FEW040 17/06 Q1027 NOSIG RMK A3032

时间: 08:23 (13:23 UTC)

预报

该预报发布于3小时和13分钟前的10:10 UTC
预报有效从16日的 12点(UTC)到 17日的 12点(UTC)
风速4节,风向东南
能见度10公里或以上
散云层高于3000英尺
短暂存在
从 16日的 15点(UTC)到 16日的 18点(UTC)
少量云层高于3300英尺
成为
从 16日的 17点(UTC)到 16日的 18点(UTC)
风速8节,风向
成为
从 17日的 00点(UTC)到 17日的 01点(UTC)
风速4节,风向北转东北
散云层高于2000英尺
散云层高于10000英尺
成为
从 17日的 06点(UTC)到 17日的 07点(UTC)
风速3节,风向多变
少量云层高于1500英尺
散云层高于2300英尺

TAF: SEQM 161010Z 1612/1712 13004KT 9999 SCT030 TEMPO 1615/1618 FEW033 BECMG 1617/1618 36008KT BECMG 1700/1701 03004KT SCT020 SCT100 BECMG 1706/1707 VRB03KT FEW015 SCT023 TX25/1619Z TN09/1711Z

超过4000个机场的气象观测和天气预报(METAR&TAF报告)。

可查询的气象台以黄色和红色小点在地图上表示。

将鼠标移到小点上方,可查看气象台名称。

然后点击查看天气观测和预报。

如需切换地图:点击带黑十字的绿色按钮放大地图;点击带横线的绿色按钮缩小地图;或者点击绿色箭头查看邻近地区的地图。


METAR-TAF: